Flight Track Log - Related Links

Times and Time Zones

All times are in EST time to prevent confusion due to time zone crossing. See the AAL228 flight status page for this flight to view local times or setup timezone preferences in your user account.


Time Position Orientation Groundspeed Altitude Reporting Facility
EST Latitude Longitude Course Direction KTS MPH feet Rate Location/Type
Sat 04:55:00 PM 33.1501 -96.6211 54° Northeast  Level Estimated
Sat 04:56:00 PM 33.2342 -96.4816 54° Northeast  Level Estimated
Sat 04:57:00 PM 33.3182 -96.3419 54° Northeast  Level Estimated
Sat 04:58:00 PM 33.4020 -96.2018 54° Northeast  Level Estimated
Sat 04:59:00 PM 33.4856 -96.0615 54° Northeast  Level Estimated
Sat 05:00:00 PM 33.5691 -95.9209 54° Northeast  Level Estimated
Sat 05:01:00 PM 33.6524 -95.7801 55° Northeast  Level Estimated
Sat 05:02:00 PM 33.7356 -95.6390 55° Northeast  Level Estimated
Sat 05:03:00 PM 33.8186 -95.4976 55° Northeast  Level Estimated
Sat 05:04:00 PM 33.9014 -95.3559 55° Northeast  Level Estimated
Sat 05:05:00 PM 33.9841 -95.2140 55° Northeast  Level Estimated
Sat 05:06:00 PM 34.0666 -95.0717 55° Northeast  Level Estimated
Sat 05:07:00 PM 34.1489 -94.9293 55° Northeast  Level Estimated
Sat 05:08:00 PM 34.2311 -94.7865 55° Northeast  Level Estimated
Sat 05:09:00 PM 34.3132 -94.6434 55° Northeast  Level Estimated
Sat 05:10:00 PM 34.3950 -94.5001 55° Northeast  Level Estimated
Sat 05:11:00 PM 34.4767 -94.3565 55° Northeast  Level Estimated
Sat 05:12:00 PM 34.5582 -94.2126 55° Northeast  Level Estimated
Sat 05:13:00 PM 34.6396 -94.0684 56° Northeast  Level Estimated
Sat 05:14:00 PM 34.7207 -93.9240 56° Northeast  Level Estimated
Sat 05:15:00 PM 34.8018 -93.7792 56° Northeast  Level Estimated
Sat 05:16:00 PM 34.8826 -93.6342 56° Northeast  Level Estimated
Sat 05:17:00 PM 34.9632 -93.4889 56° Northeast  Level Estimated
Sat 05:18:00 PM 35.0437 -93.3433 56° Northeast  Level Estimated
Sat 05:19:00 PM 35.1241 -93.1974 56° Northeast  Level Estimated
Sat 05:20:00 PM 35.2042 -93.0512 56° Northeast  Level Estimated
Sat 05:21:00 PM 35.2842 -92.9048 56° Northeast  Level Estimated
Sat 05:22:00 PM 35.3639 -92.7580 56° Northeast  Level Estimated
Sat 05:23:00 PM 35.4436 -92.6110 56° Northeast  Level Estimated
Sat 05:24:00 PM 35.5230 -92.4636 56° Northeast  Level Estimated
Sat 05:25:00 PM 35.6022 -92.3160 57° Northeast  Level Estimated
Sat 05:26:00 PM 35.6813 -92.1681 57° Northeast  Level Estimated
Sat 05:27:00 PM 35.7602 -92.0199 57° Northeast  Level Estimated
Sat 05:28:00 PM 35.8389 -91.8714 57° Northeast  Level Estimated
Sat 05:29:00 PM 35.9174 -91.7226 57° Northeast  Level Estimated
Sat 05:30:00 PM 35.9958 -91.5735 57° Northeast  Level Estimated
Sat 05:31:00 PM 36.0739 -91.4241 57° Northeast  Level Estimated
Sat 05:32:00 PM 36.1519 -91.2744 57° Northeast  Level Estimated
Sat 05:33:00 PM 36.2297 -91.1245 57° Northeast  Level Estimated
Sat 05:34:00 PM 36.3073 -90.9742 57° Northeast  Level Estimated
Sat 05:35:00 PM 36.3847 -90.8236 57° Northeast  Level Estimated
Sat 05:36:00 PM 36.4619 -90.6727 57° Northeast  Level Estimated
Sat 05:37:00 PM 36.5389 -90.5215 58° Northeast  Level Estimated
Sat 05:38:00 PM 36.6158 -90.3700 58° Northeast  Level Estimated
Sat 05:39:00 PM 36.6924 -90.2183 58° Northeast  Level Estimated
Sat 05:40:00 PM 36.7689 -90.0662 58° Northeast  Level Estimated
Sat 05:41:00 PM 36.8451 -89.9138 58° Northeast  Level Estimated
Sat 05:42:00 PM 36.9212 -89.7611 58° Northeast  Level Estimated
Sat 05:43:00 PM 36.9971 -89.6081 58° Northeast  Level Estimated
Sat 05:44:00 PM 37.0727 -89.4548 58° Northeast  Level Estimated
Sat 05:45:00 PM 37.1482 -89.3012 58° Northeast  Level Estimated
Sat 05:46:00 PM 37.2235 -89.1473 58° Northeast  Level Estimated
Sat 05:47:00 PM 37.2985 -88.9931 59° Northeast  Level Estimated
Sat 05:48:00 PM 37.3734 -88.8385 59° Northeast  Level Estimated
Sat 05:49:00 PM 37.4481 -88.6837 59° Northeast  Level Estimated
Sat 05:50:00 PM 37.5226 -88.5285 59° Northeast  Level Estimated
Sat 05:51:00 PM 37.5968 -88.3731 59° Northeast  Level Estimated
Sat 05:52:00 PM 37.6709 -88.2173 59° Northeast  Level Estimated
Sat 05:53:00 PM 37.7448 -88.0612 59° Northeast  Level Estimated
Sat 05:54:00 PM 37.8184 -87.9048 59° Northeast  Level Estimated
Sat 05:55:00 PM 37.8918 -87.7482 59° Northeast  Level Estimated
Sat 05:56:00 PM 37.9651 -87.5911 59° Northeast  Level Estimated
Sat 05:57:00 PM 38.0381 -87.4338 59° Northeast  Level Estimated
Sat 05:58:00 PM 38.1109 -87.2762 60° Northeast  Level Estimated
Sat 05:59:00 PM 38.1835 -87.1182 60° Northeast  Level Estimated
Sat 06:00:00 PM 38.2559 -86.9600 60° Northeast  Level Estimated
Sat 06:01:00 PM 38.3281 -86.8014 60° Northeast  Level Estimated
Sat 06:02:00 PM 38.4001 -86.6425 60° Northeast  Level Estimated
Sat 06:03:00 PM 38.4718 -86.4833 60° Northeast  Level Estimated
Sat 06:04:00 PM 38.5434 -86.3237 60° Northeast  Level Estimated
Sat 06:05:00 PM 38.6147 -86.1639 60° Northeast  Level Estimated
Sat 06:06:00 PM 38.6858 -86.0037 60° Northeast  Level Estimated
Sat 06:07:00 PM 38.7567 -85.8432 60° Northeast  Level Estimated
Sat 06:08:00 PM 38.8273 -85.6824 61° Northeast  Level Estimated
Sat 06:09:00 PM 38.8978 -85.5213 61° Northeast  Level Estimated
Sat 06:10:00 PM 38.9680 -85.3598 61° Northeast  Level Estimated
Sat 06:11:00 PM 39.0380 -85.1981 61° Northeast  Level Estimated
Sat 06:12:00 PM 39.1077 -85.0360 61° Northeast  Level Estimated
Sat 06:13:00 PM 39.1773 -84.8736 61° Northeast  Level Estimated
Sat 06:14:00 PM 39.2466 -84.7109 61° Northeast  Level Estimated
Sat 06:15:00 PM 39.3157 -84.5478 61° Northeast  Level Estimated
Sat 06:16:00 PM 39.3846 -84.3845 61° Northeast  Level Estimated
Sat 06:17:00 PM 39.4532 -84.2208 61° Northeast  Level Estimated
Sat 06:18:00 PM 39.5216 -84.0568 62° Northeast  Level Estimated
Sat 06:19:00 PM 39.5898 -83.8924 62° Northeast  Level Estimated
Sat 06:20:00 PM 39.6577 -83.7278 62° Northeast  Level Estimated
Sat 06:21:00 PM 39.7255 -83.5628 62° Northeast  Level Estimated
Sat 06:22:00 PM 39.7929 -83.3975 62° Northeast  Level Estimated
Sat 06:23:00 PM 39.8602 -83.2318 62° Northeast  Level Estimated
Sat 06:24:00 PM 39.9272 -83.0659 62° Northeast  Level Estimated
Sat 06:25:00 PM 39.9940 -82.8996 62° Northeast  Level Estimated
Sat 06:26:00 PM 39.9969 -82.8922 62° Northeast  Level Estimated
Sat 06:27:00 PM 39.9969 -82.8922 North  Level Estimated
Sat 06:28:00 PM 39.9969 -82.8922 North  Level Estimated
Sat 06:29:00 PM 39.9969 -82.8922 North  Level Estimated
Sat 06:30:00 PM 39.9969 -82.8922 North  Level Estimated
Sat 06:31:00 PM 39.9969 -82.8922 North  Level Estimated
Sat 06:32:00 PM 39.9969 -82.8922 North  Level Estimated
Sat 06:33:00 PM 39.9969 -82.8922 North  Level Estimated
Sat 06:34:00 PM 39.9969 -82.8922 North  Level Estimated
Sat 06:35:00 PM 39.9969 -82.8922 North  Level Estimated
Sat 06:36:00 PM 39.9969 -82.8922 North  Level Estimated
Sat 06:37:00 PM 39.9969 -82.8922 North  Level Estimated
Sat 06:38:00 PM 39.9969 -82.8922 North  Level Estimated
Sat 06:39:00 PM 39.9969 -82.8922 North  Level Estimated
Sat 06:40:00 PM 39.9969 -82.8922 North  Level Estimated
Sat 06:41:00 PM 39.9969 -82.8922 North  Level Estimated
Sat 06:42:00 PM 39.9969 -82.8922 North  Level Estimated

Login

Don't have an account? Register now (free) for customized features, flight alerts, and more!